sensor_id;sensor_type;location;lat;lon;timestamp;pressure;altitude;pressure_sealevel;temperature;humidity
54556;BME280;57291;37.520;15.106;2023-06-22T00:00:22;101463.66;;;24.67;65.36
54556;BME280;57291;37.520;15.106;2023-06-22T00:02:49;101460.19;;;24.73;64.80
54556;BME280;57291;37.520;15.106;2023-06-22T00:05:17;101457.41;;;24.73;64.43
54556;BME280;57291;37.520;15.106;2023-06-22T00:07:44;101449.47;;;24.72;65.08
54556;BME280;57291;37.520;15.106;2023-06-22T00:10:11;101453.88;;;24.76;64.02
54556;BME280;57291;37.520;15.106;2023-06-22T00:12:38;101447.53;;;24.76;63.22
54556;BME280;57291;37.520;15.106;2023-06-22T00:15:05;101443.50;;;24.73;62.87
54556;BME280;57291;37.520;15.106;2023-06-22T00:17:32;101449.47;;;24.72;63.11
54556;BME280;57291;37.520;15.106;2023-06-22T00:20:00;101449.81;;;24.70;63.31
54556;BME280;57291;37.520;15.106;2023-06-22T00:22:27;101445.94;;;24.75;61.57
54556;BME280;57291;37.520;15.106;2023-06-22T00:24:57;101440.03;;;24.80;60.51
54556;BME280;57291;37.520;15.106;2023-06-22T00:27:24;101454.38;;;24.82;60.18
54556;BME280;57291;37.520;15.106;2023-06-22T00:29:51;101446.78;;;24.79;59.62
54556;BME280;57291;37.520;15.106;2023-06-22T00:32:18;101437.97;;;24.73;59.80
54556;BME280;57291;37.520;15.106;2023-06-22T00:34:47;101449.47;;;24.72;59.98
54556;BME280;57291;37.520;15.106;2023-06-22T00:37:14;101445.94;;;24.75;59.68
54556;BME280;57291;37.520;15.106;2023-06-22T00:39:42;101437.22;;;24.76;59.39
54556;BME280;57291;37.520;15.106;2023-06-22T00:42:10;101434.44;;;24.76;60.60
54556;BME280;57291;37.520;15.106;2023-06-22T00:44:38;101436.38;;;24.72;63.32
54556;BME280;57291;37.520;15.106;2023-06-22T00:47:05;101441.34;;;24.60;64.10
54556;BME280;57291;37.520;15.106;2023-06-22T00:49:33;101432.91;;;24.52;64.24
54556;BME280;57291;37.520;15.106;2023-06-22T00:52:01;101443.22;;;24.52;65.20
54556;BME280;57291;37.520;15.106;2023-06-22T00:54:28;101440.78;;;24.50;66.42
54556;BME280;57291;37.520;15.106;2023-06-22T00:56:57;101429.84;;;24.38;67.04
54556;BME280;57291;37.520;15.106;2023-06-22T00:59:26;101434.81;;;24.25;67.10
54556;BME280;57291;37.520;15.106;2023-06-22T01:01:53;101435.06;;;24.17;66.91
54556;BME280;57291;37.520;15.106;2023-06-22T01:04:34;101433.88;;;24.18;66.59
54556;BME280;57291;37.520;15.106;2023-06-22T01:09:38;101426.00;;;24.20;65.60
54556;BME280;57291;37.520;15.106;2023-06-22T01:12:10;101435.50;;;24.19;66.54
54556;BME280;57291;37.520;15.106;2023-06-22T01:15:09;101427.59;;;24.21;64.53
54556;BME280;57291;37.520;15.106;2023-06-22T01:17:41;101433.53;;;24.19;65.28
54556;BME280;57291;37.520;15.106;2023-06-22T01:20:11;101430.25;;;24.14;65.00
54556;BME280;57291;37.520;15.106;2023-06-22T01:23:14;101435.75;;;24.10;65.98
54556;BME280;57291;37.520;15.106;2023-06-22T01:25:48;101428.94;;;24.07;65.62
54556;BME280;57291;37.520;15.106;2023-06-22T01:28:43;101428.94;;;24.07;66.74
54556;BME280;57291;37.520;15.106;2023-06-22T01:31:14;101424.47;;;23.99;67.22
54556;BME280;57291;37.520;15.106;2023-06-22T01:33:45;101429.63;;;24.01;66.36
54556;BME280;57291;37.520;15.106;2023-06-22T01:36:14;101416.88;;;23.96;66.22
54556;BME280;57291;37.520;15.106;2023-06-22T01:38:42;101418.59;;;24.04;69.03
54556;BME280;57291;37.520;15.106;2023-06-22T01:41:11;101415.34;;;23.99;66.74
54556;BME280;57291;37.520;15.106;2023-06-22T01:43:38;101409.00;;;24.02;64.12
54556;BME280;57291;37.520;15.106;2023-06-22T01:46:06;101411.94;;;24.09;64.29
54556;BME280;57291;37.520;15.106;2023-06-22T01:48:33;101416.25;;;24.06;60.39
54556;BME280;57291;37.520;15.106;2023-06-22T01:51:02;101409.94;;;24.09;58.06
54556;BME280;57291;37.520;15.106;2023-06-22T01:53:29;101406.00;;;24.10;58.91
54556;BME280;57291;37.520;15.106;2023-06-22T01:55:57;101406.00;;;24.10;59.03
54556;BME280;57291;37.520;15.106;2023-06-22T01:58:29;101406.84;;;24.15;59.50
54556;BME280;57291;37.520;15.106;2023-06-22T02:01:10;101400.13;;;24.16;59.63
54556;BME280;57291;37.520;15.106;2023-06-22T02:03:44;101407.72;;;24.19;58.38
54556;BME280;57291;37.520;15.106;2023-06-22T02:06:18;101409.50;;;24.30;56.57
54556;BME280;57291;37.520;15.106;2023-06-22T02:08:51;101402.06;;;24.38;55.73
54556;BME280;57291;37.520;15.106;2023-06-22T02:11:21;101408.88;;;24.41;56.12
54556;BME280;57291;37.520;15.106;2023-06-22T02:13:49;101406.09;;;24.41;56.05
54556;BME280;57291;37.520;15.106;2023-06-22T02:16:18;101405.63;;;24.35;55.43
54556;BME280;57291;37.520;15.106;2023-06-22T02:18:50;101401.22;;;24.34;56.22
54556;BME280;57291;37.520;15.106;2023-06-22T02:21:20;101404.03;;;24.38;55.75
54556;BME280;57291;37.520;15.106;2023-06-22T02:23:48;101407.34;;;24.43;54.68
54556;BME280;57291;37.520;15.106;2023-06-22T02:26:16;101400.25;;;24.46;54.75
54556;BME280;57291;37.520;15.106;2023-06-22T02:28:44;101407.03;;;24.48;57.52
54556;BME280;57291;37.520;15.106;2023-06-22T02:31:16;101398.13;;;24.39;58.42
54556;BME280;57291;37.520;15.106;2023-06-22T02:33:45;101405.06;;;24.26;58.23
54556;BME280;57291;37.520;15.106;2023-06-22T02:36:12;101402.53;;;24.17;57.26
54556;BME280;57291;37.520;15.106;2023-06-22T02:38:43;101400.09;;;24.12;57.00
54556;BME280;57291;37.520;15.106;2023-06-22T02:41:15;101395.34;;;24.13;57.13
54556;BME280;57291;37.520;15.106;2023-06-22T02:43:45;101409.28;;;24.16;57.20
54556;BME280;57291;37.520;15.106;2023-06-22T02:46:13;101406.16;;;24.21;56.32
54556;BME280;57291;37.520;15.106;2023-06-22T02:48:41;101400.59;;;24.21;56.54
54556;BME280;57291;37.520;15.106;2023-06-22T02:51:11;101397.97;;;24.28;54.86
54556;BME280;57291;37.520;15.106;2023-06-22T02:53:38;101405.75;;;24.42;53.97
54556;BME280;57291;37.520;15.106;2023-06-22T02:56:05;101415.78;;;24.50;53.96
54556;BME280;57291;37.520;15.106;2023-06-22T02:58:36;101418.19;;;24.52;53.70
54556;BME280;57291;37.520;15.106;2023-06-22T03:01:09;101413.06;;;24.54;53.60
54556;BME280;57291;37.520;15.106;2023-06-22T03:03:42;101409.47;;;24.53;54.15
54556;BME280;57291;37.520;15.106;2023-06-22T03:06:09;101405.41;;;24.47;54.18
54556;BME280;57291;37.520;15.106;2023-06-22T03:08:41;101401.34;;;24.41;54.46
54556;BME280;57291;37.520;15.106;2023-06-22T03:11:10;101406.47;;;24.39;54.40
54556;BME280;57291;37.520;15.106;2023-06-22T03:13:37;101404.03;;;24.38;55.13
54556;BME280;57291;37.520;15.106;2023-06-22T03:16:06;101403.03;;;24.23;61.16
54556;BME280;57291;37.520;15.106;2023-06-22T03:18:33;101406.84;;;24.15;62.16
54556;BME280;57291;37.520;15.106;2023-06-22T03:21:01;101417.47;;;23.86;63.30
54556;BME280;57291;37.520;15.106;2023-06-22T03:23:30;101416.41;;;23.71;63.75
54556;BME280;57291;37.520;15.106;2023-06-22T03:25:58;101413.53;;;23.68;62.28
54556;BME280;57291;37.520;15.106;2023-06-22T03:28:25;101415.59;;;23.71;61.51
54556;BME280;57291;37.520;15.106;2023-06-22T03:30:52;101416.47;;;23.75;61.39
54556;BME280;57291;37.520;15.106;2023-06-22T03:33:19;101408.94;;;23.75;61.13
54556;BME280;57291;37.520;15.106;2023-06-22T03:35:46;101412.22;;;23.81;60.45
54556;BME280;57291;37.520;15.106;2023-06-22T03:38:13;101410.75;;;23.87;58.46
54556;BME280;57291;37.520;15.106;2023-06-22T03:40:41;101411.66;;;23.95;57.67
54556;BME280;57291;37.520;15.106;2023-06-22T03:43:09;101415.25;;;23.95;57.75
54556;BME280;57291;37.520;15.106;2023-06-22T03:45:36;101415.41;;;24.02;56.96
54556;BME280;57291;37.520;15.106;2023-06-22T03:48:03;101415.88;;;24.08;56.72
54556;BME280;57291;37.520;15.106;2023-06-22T03:50:31;101420.56;;;24.04;57.73
54556;BME280;57291;37.520;15.106;2023-06-22T03:52:58;101421.34;;;24.04;59.69
54556;BME280;57291;37.520;15.106;2023-06-22T03:55:25;101417.72;;;24.00;59.90
54556;BME280;57291;37.520;15.106;2023-06-22T03:57:52;101421.63;;;23.96;59.78
54556;BME280;57291;37.520;15.106;2023-06-22T04:00:21;101413.66;;;23.94;59.50
54556;BME280;57291;37.520;15.106;2023-06-22T04:02:48;101428.88;;;24.04;58.57
54556;BME280;57291;37.520;15.106;2023-06-22T04:05:16;101425.81;;;24.09;58.20
54556;BME280;57291;37.520;15.106;2023-06-22T04:07:46;101421.06;;;24.09;57.86
54556;BME280;57291;37.520;15.106;2023-06-22T04:10:13;101429.06;;;24.15;58.43
54556;BME280;57291;37.520;15.106;2023-06-22T04:12:43;101421.97;;;24.17;58.83
54556;BME280;57291;37.520;15.106;2023-06-22T04:15:10;101425.19;;;24.19;59.28
54556;BME280;57291;37.520;15.106;2023-06-22T04:17:39;101428.09;;;24.26;58.75
54556;BME280;57291;37.520;15.106;2023-06-22T04:20:06;101421.09;;;24.36;57.30
54556;BME280;57291;37.520;15.106;2023-06-22T04:22:34;101418.16;;;24.48;56.81
54556;BME280;57291;37.520;15.106;2023-06-22T04:25:01;101427.88;;;24.62;56.77
54556;BME280;57291;37.520;15.106;2023-06-22T04:27:28;101421.19;;;24.66;56.59
54556;BME280;57291;37.520;15.106;2023-06-22T04:29:55;101425.28;;;24.76;55.93
54556;BME280;57291;37.520;15.106;2023-06-22T04:32:23;101424.97;;;24.81;58.04
54556;BME280;57291;37.520;15.106;2023-06-22T04:34:50;101426.97;;;24.84;58.47
54556;BME280;57291;37.520;15.106;2023-06-22T04:37:19;101428.56;;;24.82;57.38
54556;BME280;57291;37.520;15.106;2023-06-22T04:39:46;101426.66;;;24.89;57.34
54556;BME280;57291;37.520;15.106;2023-06-22T04:42:13;101436.78;;;25.01;56.00
54556;BME280;57291;37.520;15.106;2023-06-22T04:44:40;101430.22;;;25.16;54.86
54556;BME280;57291;37.520;15.106;2023-06-22T04:47:09;101433.25;;;25.34;54.20
54556;BME280;57291;37.520;15.106;2023-06-22T04:49:36;101436.63;;;25.50;53.43
54556;BME280;57291;37.520;15.106;2023-06-22T04:52:08;101432.41;;;25.67;52.62
54556;BME280;57291;37.520;15.106;2023-06-22T04:54:38;101431.78;;;25.81;51.59
54556;BME280;57291;37.520;15.106;2023-06-22T04:57:06;101434.22;;;25.86;52.83
54556;BME280;57291;37.520;15.106;2023-06-22T04:59:37;101433.97;;;26.02;55.24
54556;BME280;57291;37.520;15.106;2023-06-22T05:02:08;101438.47;;;26.14;56.17
54556;BME280;57291;37.520;15.106;2023-06-22T05:04:36;101449.19;;;26.12;58.10
54556;BME280;57291;37.520;15.106;2023-06-22T05:07:06;101444.28;;;25.98;58.00
54556;BME280;57291;37.520;15.106;2023-06-22T05:09:34;101439.91;;;25.97;57.58
54556;BME280;57291;37.520;15.106;2023-06-22T05:12:02;101441.13;;;26.00;57.88
54556;BME280;57291;37.520;15.106;2023-06-22T05:14:30;101444.28;;;25.98;57.51
54556;BME280;57291;37.520;15.106;2023-06-22T05:16:57;101442.72;;;26.01;57.14
54556;BME280;57291;37.520;15.106;2023-06-22T05:19:31;101442.75;;;26.04;57.04
54556;BME280;57291;37.520;15.106;2023-06-22T05:22:01;101450.03;;;26.16;56.63
54556;BME280;57291;37.520;15.106;2023-06-22T05:24:28;101448.56;;;26.29;56.75
54556;BME280;57291;37.520;15.106;2023-06-22T05:26:55;101450.31;;;26.52;55.83
54556;BME280;57291;37.520;15.106;2023-06-22T05:29:23;101460.41;;;26.71;55.12
54556;BME280;57291;37.520;15.106;2023-06-22T05:31:51;101459.34;;;26.89;54.41
54556;BME280;57291;37.520;15.106;2023-06-22T05:34:18;101459.84;;;27.06;53.30
54556;BME280;57291;37.520;15.106;2023-06-22T05:36:45;101465.13;;;27.25;52.15
54556;BME280;57291;37.520;15.106;2023-06-22T05:39:14;101470.78;;;27.40;52.39
54556;BME280;57291;37.520;15.106;2023-06-22T05:41:42;101468.41;;;27.45;52.82
54556;BME280;57291;37.520;15.106;2023-06-22T05:44:12;101463.59;;;27.35;52.36
54556;BME280;57291;37.520;15.106;2023-06-22T05:46:41;101483.16;;;27.46;55.54
54556;BME280;57291;37.520;15.106;2023-06-22T05:49:12;101483.50;;;27.37;56.51
54556;BME280;57291;37.520;15.106;2023-06-22T05:51:40;101487.09;;;27.34;54.46
54556;BME280;57291;37.520;15.106;2023-06-22T05:54:07;101480.50;;;27.81;53.34
54556;BME280;57291;37.520;15.106;2023-06-22T05:56:40;101474.56;;;28.80;49.91
54556;BME280;57291;37.520;15.106;2023-06-22T05:59:07;101478.34;;;30.17;46.79
54556;BME280;57291;37.520;15.106;2023-06-22T06:01:34;101484.63;;;31.52;43.77
54556;BME280;57291;37.520;15.106;2023-06-22T06:04:03;101490.91;;;32.44;42.03
54556;BME280;57291;37.520;15.106;2023-06-22T06:06:31;101478.56;;;33.05;40.70
54556;BME280;57291;37.520;15.106;2023-06-22T06:08:58;101488.50;;;33.30;39.73
54556;BME280;57291;37.520;15.106;2023-06-22T06:11:26;101491.44;;;33.62;38.17
54556;BME280;57291;37.520;15.106;2023-06-22T06:13:54;101495.78;;;33.67;37.80
54556;BME280;57291;37.520;15.106;2023-06-22T06:16:22;101492.13;;;33.50;37.03
54556;BME280;57291;37.520;15.106;2023-06-22T06:18:49;101496.16;;;33.49;37.61
54556;BME280;57291;37.520;15.106;2023-06-22T06:21:17;101503.25;;;33.37;38.96
54556;BME280;57291;37.520;15.106;2023-06-22T06:23:44;101506.66;;;32.85;39.57
54556;BME280;57291;37.520;15.106;2023-06-22T06:26:11;101511.28;;;32.96;37.47
54556;BME280;57291;37.520;15.106;2023-06-22T06:28:39;101499.66;;;33.17;35.09
54556;BME280;57291;37.520;15.106;2023-06-22T06:31:08;101502.09;;;33.35;36.59
54556;BME280;57291;37.520;15.106;2023-06-22T06:33:36;101503.16;;;33.41;38.17
54556;BME280;57291;37.520;15.106;2023-06-22T06:36:03;101515.72;;;33.16;38.71
54556;BME280;57291;37.520;15.106;2023-06-22T06:38:30;101508.13;;;33.13;37.51
54556;BME280;57291;37.520;15.106;2023-06-22T06:40:58;101496.69;;;33.24;34.00
54556;BME280;57291;37.520;15.106;2023-06-22T06:43:26;101502.25;;;33.28;37.58
54556;BME280;57291;37.520;15.106;2023-06-22T06:45:53;101500.72;;;33.23;37.02
54556;BME280;57291;37.520;15.106;2023-06-22T06:48:20;101505.47;;;33.06;34.54
54556;BME280;57291;37.520;15.106;2023-06-22T06:50:48;101503.47;;;32.83;37.63
54556;BME280;57291;37.520;15.106;2023-06-22T06:53:15;101517.09;;;32.65;39.97
54556;BME280;57291;37.520;15.106;2023-06-22T06:55:42;101519.13;;;32.37;39.49
54556;BME280;57291;37.520;15.106;2023-06-22T06:58:12;101519.63;;;32.32;38.48
54556;BME280;57291;37.520;15.106;2023-06-22T07:00:41;101528.66;;;31.93;39.79
54556;BME280;57291;37.520;15.106;2023-06-22T07:03:10;101522.88;;;31.42;40.96
54556;BME280;57291;37.520;15.106;2023-06-22T07:05:38;101530.44;;;30.66;43.55
54556;BME280;57291;37.520;15.106;2023-06-22T07:08:05;101525.44;;;29.80;45.80
54556;BME280;57291;37.520;15.106;2023-06-22T07:10:32;101530.31;;;29.65;49.07
54556;BME280;57291;37.520;15.106;2023-06-22T07:12:59;101538.16;;;29.96;50.84
54556;BME280;57291;37.520;15.106;2023-06-22T07:15:27;101539.22;;;30.16;52.33
54556;BME280;57291;37.520;15.106;2023-06-22T07:17:55;101529.06;;;30.40;52.90
54556;BME280;57291;37.520;15.106;2023-06-22T07:20:22;101538.81;;;30.25;55.81
54556;BME280;57291;37.520;15.106;2023-06-22T07:22:50;101536.09;;;30.03;57.98
54556;BME280;57291;37.520;15.106;2023-06-22T07:25:18;101539.38;;;29.87;58.46
54556;BME280;57291;37.520;15.106;2023-06-22T07:28:02;101538.59;;;29.87;59.50
54556;BME280;57291;37.520;15.106;2023-06-22T07:30:31;101535.47;;;29.71;59.72
54556;BME280;57291;37.520;15.106;2023-06-22T07:33:00;101531.47;;;29.75;60.70
54556;BME280;57291;37.520;15.106;2023-06-22T07:35:31;101529.38;;;29.90;60.89
54556;BME280;57291;37.520;15.106;2023-06-22T07:37:59;101535.78;;;29.87;58.52
54556;BME280;57291;37.520;15.106;2023-06-22T07:40:31;101530.91;;;30.02;57.55
54556;BME280;57291;37.520;15.106;2023-06-22T07:42:58;101534.72;;;30.33;54.71
54556;BME280;57291;37.520;15.106;2023-06-22T07:45:26;101527.72;;;30.59;52.33
54556;BME280;57291;37.520;15.106;2023-06-22T07:47:53;101527.75;;;31.00;49.10
54556;BME280;57291;37.520;15.106;2023-06-22T07:50:20;101534.50;;;31.03;47.18
54556;BME280;57291;37.520;15.106;2023-06-22T07:52:47;101524.25;;;31.27;47.88
54556;BME280;57291;37.520;15.106;2023-06-22T07:55:14;101526.53;;;31.01;49.29
54556;BME280;57291;37.520;15.106;2023-06-22T07:57:42;101527.84;;;30.45;49.18
54556;BME280;57291;37.520;15.106;2023-06-22T08:00:10;101533.63;;;30.16;50.63
54556;BME280;57291;37.520;15.106;2023-06-22T08:02:43;101521.59;;;30.23;50.14
54556;BME280;57291;37.520;15.106;2023-06-22T08:05:11;101524.47;;;30.08;48.24
54556;BME280;57291;37.520;15.106;2023-06-22T08:07:48;101527.31;;;30.05;49.45
54556;BME280;57291;37.520;15.106;2023-06-22T08:10:16;101539.63;;;30.22;48.67
54556;BME280;57291;37.520;15.106;2023-06-22T08:12:43;101531.81;;;29.88;48.87
54556;BME280;57291;37.520;15.106;2023-06-22T08:15:10;101534.16;;;29.93;48.58
54556;BME280;57291;37.520;15.106;2023-06-22T08:17:38;101538.59;;;29.87;46.94
54556;BME280;57291;37.520;15.106;2023-06-22T08:20:07;101536.28;;;29.75;47.17
54556;BME280;57291;37.520;15.106;2023-06-22T08:22:40;101531.31;;;30.00;47.98
54556;BME280;57291;37.520;15.106;2023-06-22T08:25:08;101536.00;;;30.25;41.83
54556;BME280;57291;37.520;15.106;2023-06-22T08:27:36;101534.06;;;30.63;40.60
54556;BME280;57291;37.520;15.106;2023-06-22T08:30:03;101529.97;;;30.75;41.17
54556;BME280;57291;37.520;15.106;2023-06-22T08:32:31;101531.38;;;30.97;41.25
54556;BME280;57291;37.520;15.106;2023-06-22T08:35:00;101530.75;;;31.20;41.47
54556;BME280;57291;37.520;15.106;2023-06-22T08:37:28;101535.91;;;31.22;41.67
54556;BME280;57291;37.520;15.106;2023-06-22T08:39:59;101533.63;;;31.13;41.91
54556;BME280;57291;37.520;15.106;2023-06-22T08:42:28;101534.38;;;31.17;43.04
54556;BME280;57291;37.520;15.106;2023-06-22T08:44:55;101541.94;;;30.82;41.39
54556;BME280;57291;37.520;15.106;2023-06-22T08:47:22;101539.28;;;30.65;42.30
54556;BME280;57291;37.520;15.106;2023-06-22T08:54:57;101547.56;;;30.82;41.39
54556;BME280;57291;37.520;15.106;2023-06-22T08:57:26;101537.25;;;30.69;40.02
54556;BME280;57291;37.520;15.106;2023-06-22T08:59:53;101540.69;;;30.38;41.01
54556;BME280;57291;37.520;15.106;2023-06-22T09:02:28;101537.63;;;30.15;41.49
54556;BME280;57291;37.520;15.106;2023-06-22T09:04:58;101548.06;;;30.07;40.98
54556;BME280;57291;37.520;15.106;2023-06-22T09:07:26;101544.13;;;29.98;40.53
54556;BME280;57291;37.520;15.106;2023-06-22T09:09:53;101542.50;;;30.04;40.71
54556;BME280;57291;37.520;15.106;2023-06-22T09:12:20;101551.13;;;30.38;40.67
54556;BME280;57291;37.520;15.106;2023-06-22T09:14:53;101547.81;;;30.54;39.76
54556;BME280;57291;37.520;15.106;2023-06-22T09:17:22;101550.13;;;30.63;39.07
54556;BME280;57291;37.520;15.106;2023-06-22T09:19:49;101543.75;;;31.03;38.73
54556;BME280;57291;37.520;15.106;2023-06-22T09:22:17;101543.69;;;31.11;36.97
54556;BME280;57291;37.520;15.106;2023-06-22T09:24:44;101540.56;;;31.01;37.67
54556;BME280;57291;37.520;15.106;2023-06-22T09:27:11;101542.00;;;31.17;36.10
54556;BME280;57291;37.520;15.106;2023-06-22T09:29:38;101537.75;;;31.01;35.51
54556;BME280;57291;37.520;15.106;2023-06-22T09:32:06;101541.38;;;30.57;36.22
54556;BME280;57291;37.520;15.106;2023-06-22T09:34:33;101543.22;;;30.22;36.61
54556;BME280;57291;37.520;15.106;2023-06-22T09:37:00;101551.22;;;30.24;36.76
54556;BME280;57291;37.520;15.106;2023-06-22T09:39:28;101553.53;;;30.36;38.24
54556;BME280;57291;37.520;15.106;2023-06-22T09:41:55;101554.31;;;30.36;39.12
54556;BME280;57291;37.520;15.106;2023-06-22T09:44:22;101564.63;;;30.54;41.00
54556;BME280;57291;37.520;15.106;2023-06-22T09:46:49;101549.06;;;30.46;40.05
54556;BME280;57291;37.520;15.106;2023-06-22T09:49:16;101556.88;;;30.13;40.68
54556;BME280;57291;37.520;15.106;2023-06-22T09:51:47;101556.97;;;29.95;42.06
54556;BME280;57291;37.520;15.106;2023-06-22T09:54:14;101554.56;;;29.94;46.73
54556;BME280;57291;37.520;15.106;2023-06-22T09:56:41;101556.22;;;29.84;49.22
54556;BME280;57291;37.520;15.106;2023-06-22T09:59:08;101541.91;;;29.57;52.04
54556;BME280;57291;37.520;15.106;2023-06-22T10:01:44;101545.44;;;29.82;49.28
54556;BME280;57291;37.520;15.106;2023-06-22T10:04:12;101545.81;;;29.88;52.51
54556;BME280;57291;37.520;15.106;2023-06-22T10:06:39;101531.50;;;29.72;53.86
54556;BME280;57291;37.520;15.106;2023-06-22T10:09:07;101538.31;;;29.63;54.46
54556;BME280;57291;37.520;15.106;2023-06-22T10:11:35;101533.44;;;29.82;51.81
54556;BME280;57291;37.520;15.106;2023-06-22T10:14:04;101537.03;;;29.82;48.03
54556;BME280;57291;37.520;15.106;2023-06-22T10:16:31;101531.56;;;30.31;46.71
54556;BME280;57291;37.520;15.106;2023-06-22T10:18:59;101535.13;;;30.83;42.46
54556;BME280;57291;37.520;15.106;2023-06-22T10:21:27;101540.88;;;31.11;43.26
54556;BME280;57291;37.520;15.106;2023-06-22T10:23:55;101535.66;;;31.47;37.68
54556;BME280;57291;37.520;15.106;2023-06-22T10:29:25;101534.22;;;31.66;34.27
54556;BME280;57291;37.520;15.106;2023-06-22T10:31:52;101522.50;;;31.71;35.72
54556;BME280;57291;37.520;15.106;2023-06-22T10:34:19;101528.78;;;31.51;35.69
54556;BME280;57291;37.520;15.106;2023-06-22T10:36:46;101524.94;;;31.38;35.28
54556;BME280;57291;37.520;15.106;2023-06-22T10:39:15;101530.06;;;31.47;39.98
54556;BME280;57291;37.520;15.106;2023-06-22T10:41:42;101526.22;;;31.30;43.56
54556;BME280;57291;37.520;15.106;2023-06-22T10:44:10;101527.59;;;31.15;38.42
54556;BME280;57291;37.520;15.106;2023-06-22T10:46:38;101517.22;;;31.08;47.18
54556;BME280;57291;37.520;15.106;2023-06-22T10:49:05;101524.22;;;30.48;48.65
54556;BME280;57291;37.520;15.106;2023-06-22T10:51:32;101522.19;;;30.48;48.79
54556;BME280;57291;37.520;15.106;2023-06-22T10:54:00;101519.53;;;30.27;49.19
54556;BME280;57291;37.520;15.106;2023-06-22T10:56:27;101516.44;;;30.10;47.27
54556;BME280;57291;37.520;15.106;2023-06-22T10:58:56;101521.63;;;30.15;47.23
54556;BME280;57291;37.520;15.106;2023-06-22T11:01:23;101520.38;;;30.24;49.67
54556;BME280;57291;37.520;15.106;2023-06-22T11:03:53;101523.72;;;29.97;49.97
54556;BME280;57291;37.520;15.106;2023-06-22T11:06:21;101526.44;;;30.19;49.72
54556;BME280;57291;37.520;15.106;2023-06-22T11:08:48;101518.66;;;30.37;49.43
54556;BME280;57291;37.520;15.106;2023-06-22T11:11:35;101517.91;;;30.33;48.04
54556;BME280;57291;37.520;15.106;2023-06-22T11:14:02;101514.72;;;30.31;45.79
54556;BME280;57291;37.520;15.106;2023-06-22T11:16:29;101506.25;;;30.38;46.43
54556;BME280;57291;37.520;15.106;2023-06-22T11:18:57;101511.94;;;30.27;46.38
54556;BME280;57291;37.520;15.106;2023-06-22T11:21:25;101506.19;;;30.45;45.42
54556;BME280;57291;37.520;15.106;2023-06-22T11:23:52;101507.25;;;30.62;43.80
54556;BME280;57291;37.520;15.106;2023-06-22T11:26:19;101490.66;;;30.82;42.19
54556;BME280;57291;37.520;15.106;2023-06-22T11:28:48;101494.94;;;30.94;40.25
54556;BME280;57291;37.520;15.106;2023-06-22T11:31:15;101500.31;;;31.15;40.24
54556;BME280;57291;37.520;15.106;2023-06-22T11:33:52;101491.19;;;31.07;40.86
54556;BME280;57291;37.520;15.106;2023-06-22T11:36:19;101496.97;;;30.93;41.37
54556;BME280;57291;37.520;15.106;2023-06-22T11:38:47;101486.75;;;30.69;41.83
54556;BME280;57291;37.520;15.106;2023-06-22T11:41:14;101478.44;;;30.58;41.08
54556;BME280;57291;37.520;15.106;2023-06-22T11:43:41;101480.44;;;30.57;41.60
54556;BME280;57291;37.520;15.106;2023-06-22T11:46:08;101480.31;;;30.72;41.17
54556;BME280;57291;37.520;15.106;2023-06-22T11:48:36;101472.09;;;30.92;40.57
54556;BME280;57291;37.520;15.106;2023-06-22T11:51:03;101479.31;;;30.93;40.17
54556;BME280;57291;37.520;15.106;2023-06-22T11:53:30;101474.72;;;30.68;37.36
54556;BME280;57291;37.520;15.106;2023-06-22T11:55:57;101473.50;;;30.69;38.69
54556;BME280;57291;37.520;15.106;2023-06-22T11:58:25;101471.84;;;30.75;39.06
54556;BME280;57291;37.520;15.106;2023-06-22T12:00:52;101472.84;;;30.96;37.77
54556;BME280;57291;37.520;15.106;2023-06-22T12:03:20;101471.44;;;31.15;37.16
54556;BME280;57291;37.520;15.106;2023-06-22T12:05:50;101465.16;;;31.03;30.49
54556;BME280;57291;37.520;15.106;2023-06-22T12:08:21;101467.16;;;31.03;32.48
54556;BME280;57291;37.520;15.106;2023-06-22T12:10:49;101474.09;;;31.25;33.29
54556;BME280;57291;37.520;15.106;2023-06-22T12:13:17;101471.25;;;31.29;31.83
54556;BME280;57291;37.520;15.106;2023-06-22T12:15:44;101458.38;;;31.31;28.30
54556;BME280;57291;37.520;15.106;2023-06-22T12:18:11;101471.34;;;31.56;32.30
54556;BME280;57291;37.520;15.106;2023-06-22T12:20:41;101459.03;;;31.46;30.11
54556;BME280;57291;37.520;15.106;2023-06-22T12:23:08;101458.97;;;31.16;31.80
54556;BME280;57291;37.520;15.106;2023-06-22T12:25:35;101458.09;;;31.22;32.09
54556;BME280;57291;37.520;15.106;2023-06-22T12:28:02;101453.16;;;30.99;33.65
54556;BME280;57291;37.520;15.106;2023-06-22T12:30:33;101451.41;;;31.13;33.47
54556;BME280;57291;37.520;15.106;2023-06-22T12:33:00;101452.63;;;31.12;29.47
54556;BME280;57291;37.520;15.106;2023-06-22T12:35:27;101449.22;;;31.27;31.34
54556;BME280;57291;37.520;15.106;2023-06-22T12:37:54;101444.78;;;31.61;31.40
54556;BME280;57291;37.520;15.106;2023-06-22T12:40:22;101449.97;;;31.62;30.95
54556;BME280;57291;37.520;15.106;2023-06-22T12:42:49;101437.63;;;31.56;30.02
54556;BME280;57291;37.520;15.106;2023-06-22T12:45:16;101442.75;;;31.34;31.16
54556;BME280;57291;37.520;15.106;2023-06-22T12:47:43;101439.53;;;31.32;32.92
54556;BME280;57291;37.520;15.106;2023-06-22T12:50:11;101432.31;;;31.31;32.78
54556;BME280;57291;37.520;15.106;2023-06-22T12:52:39;101434.75;;;31.29;32.03
54556;BME280;57291;37.520;15.106;2023-06-22T12:55:08;101434.84;;;31.22;32.54
54556;BME280;57291;37.520;15.106;2023-06-22T12:57:35;101428.44;;;31.21;31.95